Airfield :
LOGIN :

Register | Disclaimer

   EN    FR    IT 

 










Legend :    VFR   Marginal VFR   IFR   Intensive IFR   Very Intensive IFR
Visi :
Ceiling :
>= 8 km
>= 3000ft
5 to 8 km
1000 to 3000 ft
1500m to 5 km
500 to 1000 ft
800 to 1500m
200 to 500 ft
< 800m
< 200 ft
Symbols :   Thunderstorms  Fog  Heavy snow  Heavy precipitations  Wind > 20 kt
SIGMETs :     Misc.  Thunderstorms  Icing  Turbulence  Mountain Waves  Volcanic Ashes







- Airport Elevation : 5600 ft
- IATA code : SMV


LSZS - Samedan

CURRENT METAR :
  • 202150Z AUTO 04004KT 9999 NCD 10/09 Q1022

EXPIRED METARs :
  • 202120Z AUTO 01008KT 9999 FEW070 SCT090 11/09 Q1022
  • 202050Z AUTO 04008KT 9999 OVC070 10/09 Q1022
  • 202020Z AUTO 36011KT 9999 -RA OVC060TCU 11/09 Q1022
  • 201950Z AUTO 04016KT 9999 FEW050CB OVC070 11/08 Q1022

TAF TAF LSZS
Valid from the 20 at 15:00 until the 21 at 00:00 UTC


201425Z 2015/2024 21012KT 9999 BKN060 TX20/2015Z
TEMPO 2015/2024 4500 SHRA FEW050TCU
TEMPO 2015/2018 22015G25KT
PROB30
TEMPO 2018/2024 22015G25KT 3000 TSRA FEW040CB
BECMG 2019/2021 VRB03KT
ATIS : +41 81 834 93 24
No reported NOTAMs for that airfield.



MET'MAP, your aeronautical weather chart ! - Copyright ORBIFLY December 2007 - Disclaimer

ORBIFLY MET'MAP TEAM :

Programming & Development : Alexandra Zaïnal
Concept & Development : Baudouin d'Aumeries
Co-Development & Prog : Marc-Olivier Méhu
Technical & hardware support : Manuel Goepfert

Contact : metmap@orbifly.com




SOURCES & CREDITS :

   NOAA